Time,TemperatureF,DewpointF,PressureIn,WindDirection,WindDirectionDegrees,WindSpeedMPH,WindSpeedGustMPH,Humidity,HourlyPrecipIn,Conditions,Clouds,dailyrainin,SoftwareType,DateUTC
2013-03-01 00:00:00,42.1,31.9,29.71,WNW,294,1.0,2.0,67,0.00,,,0.02,Wunderground v.1.15,2013-03-01 05:00:00,
2013-03-01 00:06:00,42.1,31.9,29.71,North,350,2.0,2.0,67,0.00,,,0.00,Wunderground v.1.15,2013-03-01 05:06:00,
2013-03-01 00:11:00,42.0,31.8,29.71,North,350,2.0,2.0,67,0.00,,,0.00,Wunderground v.1.15,2013-03-01 05:11:00,
2013-03-01 00:21:00,42.0,32.2,29.71,WNW,296,1.0,1.0,68,0.00,,,0.00,Wunderground v.1.15,2013-03-01 05:21:00,
2013-03-01 00:51:00,41.3,31.9,29.72,NW,306,1.0,1.0,69,0.00,,,0.00,Wunderground v.1.15,2013-03-01 05:51:00,
2013-03-01 01:06:00,41.1,32.1,29.72,NW,309,1.0,1.0,70,0.00,,,0.00,Wunderground v.1.15,2013-03-01 06:06:00,
2013-03-01 01:15:00,41.3,31.9,29.72,NW,319,2.0,2.0,69,0.00,,,0.00,Wunderground v.1.15,2013-03-01 06:15:00,
2013-03-01 01:21:00,41.4,32.3,29.72,NW,316,1.0,2.0,70,0.00,,,0.00,Wunderground v.1.15,2013-03-01 06:21:00,
2013-03-01 01:31:00,41.3,32.2,29.73,NW,313,1.0,1.0,70,0.00,,,0.00,Wunderground v.1.15,2013-03-01 06:31:00,
2013-03-01 01:51:00,41.4,32.3,29.73,WNW,295,1.0,6.0,70,0.00,,,0.00,Wunderground v.1.15,2013-03-01 06:51:00,
2013-03-01 02:11:00,41.5,32.8,29.73,NNW,340,1.0,2.0,71,0.00,,,0.00,Wunderground v.1.15,2013-03-01 07:11:00,
2013-03-01 02:21:00,41.5,32.8,29.73,NNW,340,2.0,2.0,71,0.00,,,0.00,Wunderground v.1.15,2013-03-01 07:21:00,
2013-03-01 02:45:00,41.5,33.1,29.72,NW,321,2.0,3.0,72,0.00,,,0.00,Wunderground v.1.15,2013-03-01 07:45:00,
2013-03-01 02:51:00,41.5,33.1,29.72,NNW,327,2.0,3.0,72,0.00,,,0.00,Wunderground v.1.15,2013-03-01 07:51:00,
2013-03-01 03:01:00,41.5,33.1,29.73,NNW,333,3.0,3.0,72,0.00,,,0.00,Wunderground v.1.15,2013-03-01 08:01:00,
2013-03-01 03:15:00,41.5,33.1,29.73,NNW,348,2.0,4.0,72,0.00,,,0.00,Wunderground v.1.15,2013-03-01 08:15:00,
2013-03-01 03:21:00,41.5,33.1,29.73,NW,315,2.0,4.0,72,0.00,,,0.00,Wunderground v.1.15,2013-03-01 08:21:00,
2013-03-01 03:31:00,41.4,33.0,29.73,NNW,327,2.0,5.0,72,0.00,,,0.00,Wunderground v.1.15,2013-03-01 08:31:00,
2013-03-01 03:41:00,41.4,33.0,29.73,NNW,338,2.0,2.0,72,0.00,,,0.00,Wunderground v.1.15,2013-03-01 08:41:00,
2013-03-01 03:51:00,41.4,33.0,29.74,WNW,290,2.0,2.0,72,0.00,,,0.00,Wunderground v.1.15,2013-03-01 08:51:00,
2013-03-01 04:01:00,41.4,33.0,29.74,NNW,334,2.0,2.0,72,0.00,,,0.00,Wunderground v.1.15,2013-03-01 09:01:00,
2013-03-01 04:15:00,41.3,33.0,29.74,NNW,331,2.0,4.0,72,0.00,,,0.00,Wunderground v.1.15,2013-03-01 09:15:00,
2013-03-01 04:21:00,41.2,32.9,29.74,NNW,335,2.0,7.0,72,0.00,,,0.00,Wunderground v.1.15,2013-03-01 09:21:00,
2013-03-01 04:31:00,41.2,32.9,29.74,NW,321,3.0,5.0,72,0.00,,,0.00,Wunderground v.1.15,2013-03-01 09:31:00,
2013-03-01 04:36:00,41.2,32.9,29.74,NNW,338,2.0,2.0,72,0.00,,,0.00,Wunderground v.1.15,2013-03-01 09:36:00,
2013-03-01 04:45:00,41.1,32.8,29.73,NNW,329,4.0,4.0,72,0.00,,,0.00,Wunderground v.1.15,2013-03-01 09:45:00,
2013-03-01 04:55:00,40.9,32.6,29.73,NNW,340,4.0,4.0,72,0.00,,,0.00,Wunderground v.1.15,2013-03-01 09:55:00,
2013-03-01 05:05:00,40.6,32.6,29.74,NNW,343,2.0,2.0,73,0.00,,,0.00,Wunderground v.1.15,2013-03-01 10:05:00,
2013-03-01 05:15:00,40.3,32.3,29.74,NNW,346,1.0,4.0,73,0.00,,,0.00,Wunderground v.1.15,2013-03-01 10:15:00,
2013-03-01 05:21:00,40.1,32.5,29.74,WNW,296,2.0,4.0,74,0.00,,,0.00,Wunderground v.1.15,2013-03-01 10:21:00,
2013-03-01 05:31:00,40.0,32.4,29.74,NNW,329,2.0,2.0,74,0.00,,,0.00,Wunderground v.1.15,2013-03-01 10:31:00,
2013-03-01 05:36:00,39.8,32.2,29.74,NNW,335,1.0,1.0,74,0.00,,,0.00,Wunderground v.1.15,2013-03-01 10:36:00,
2013-03-01 05:45:00,39.7,32.4,29.74,NW,316,1.0,4.0,75,0.00,,,0.00,Wunderground v.1.15,2013-03-01 10:45:00,
2013-03-01 05:55:00,39.8,32.5,29.75,North,360,1.0,4.0,75,0.00,,,0.00,Wunderground v.1.15,2013-03-01 10:55:00,
2013-03-01 06:01:00,39.9,32.6,29.75,NNW,333,1.0,3.0,75,0.00,,,0.00,Wunderground v.1.15,2013-03-01 11:01:00,
2013-03-01 06:21:00,40.0,32.7,29.75,WNW,303,1.0,1.0,75,0.00,,,0.00,Wunderground v.1.15,2013-03-01 11:21:00,
2013-03-01 06:31:00,40.1,32.8,29.76,NNE,26,1.0,2.0,75,0.00,,,0.00,Wunderground v.1.15,2013-03-01 11:31:00,
2013-03-01 06:36:00,40.1,32.8,29.76,NW,322,2.0,2.0,75,0.00,,,0.00,Wunderground v.1.15,2013-03-01 11:36:00,
2013-03-01 06:51:00,40.2,32.9,29.76,NNW,338,2.0,2.0,75,0.00,,,0.00,Wunderground v.1.15,2013-03-01 11:51:00,
2013-03-01 07:01:00,39.9,32.6,29.76,WNW,291,1.0,2.0,75,0.00,,,0.00,Wunderground v.1.15,2013-03-01 12:01:00,
2013-03-01 07:11:00,39.6,32.3,29.77,WNW,297,1.0,1.0,75,0.00,,,0.00,Wunderground v.1.15,2013-03-01 12:11:00,
2013-03-01 07:21:00,39.4,32.5,29.77,WNW,301,1.0,1.0,76,0.00,,,0.00,Wunderground v.1.15,2013-03-01 12:21:00,
2013-03-01 07:31:00,40.2,33.2,29.78,NW,306,0.0,1.0,76,0.00,,,0.00,Wunderground v.1.15,2013-03-01 12:31:00,
2013-03-01 07:45:00,41.1,33.1,29.78,West,274,2.0,2.0,73,0.00,,,0.00,Wunderground v.1.15,2013-03-01 12:45:00,
2013-03-01 07:55:00,41.7,33.3,29.79,NNW,341,2.0,2.0,72,0.00,,,0.00,Wunderground v.1.15,2013-03-01 12:55:00,
2013-03-01 08:01:00,42.2,33.5,29.79,WNW,286,3.0,3.0,71,0.00,,,0.00,Wunderground v.1.15,2013-03-01 13:01:00,
2013-03-01 08:06:00,42.4,33.7,29.79,North,355,3.0,3.0,71,0.00,,,0.00,Wunderground v.1.15,2013-03-01 13:06:00,
2013-03-01 08:15:00,43.3,34.2,29.79,NNW,345,3.0,6.0,70,0.00,,,0.00,Wunderground v.1.15,2013-03-01 13:15:00,
2013-03-01 08:21:00,43.7,34.2,29.80,NNW,331,3.0,6.0,69,0.00,,,0.00,Wunderground v.1.15,2013-03-01 13:21:00,
2013-03-01 08:35:00,43.1,33.6,29.80,NNW,331,4.0,4.0,69,0.00,,,0.00,Wunderground v.1.15,2013-03-01 13:35:00,
2013-03-01 08:55:00,43.7,33.8,29.80,NNW,340,4.0,5.0,68,0.00,,,0.00,Wunderground v.1.15,2013-03-01 13:55:00,
2013-03-01 09:01:00,43.7,33.5,29.80,North,355,4.0,4.0,67,0.00,,,0.00,Wunderground v.1.15,2013-03-01 14:01:00,
2013-03-01 09:11:00,44.0,33.4,29.80,NNW,342,5.0,7.0,66,0.00,,,0.00,Wunderground v.1.15,2013-03-01 14:11:00,
2013-03-01 09:21:00,44.3,33.7,29.80,North,351,4.0,5.0,66,0.00,,,0.00,Wunderground v.1.15,2013-03-01 14:21:00,
2013-03-01 10:01:00,45.2,33.3,29.80,NNW,346,5.0,8.0,63,0.00,,,0.00,Wunderground v.1.15,2013-03-01 15:01:00,
2013-03-01 10:06:00,45.7,33.4,29.80,NNE,22,5.0,8.0,62,0.00,,,0.00,Wunderground v.1.15,2013-03-01 15:06:00,
2013-03-01 10:11:00,46.1,33.4,29.80,North,360,6.0,6.0,61,0.00,,,0.00,Wunderground v.1.15,2013-03-01 15:11:00,
2013-03-01 10:21:00,46.1,33.8,29.79,NNW,334,6.0,12.0,62,0.00,,,0.00,Wunderground v.1.15,2013-03-01 15:21:00,
2013-03-01 11:01:00,45.0,32.8,29.80,West,267,2.0,2.0,62,0.00,,,0.00,Wunderground v.1.15,2013-03-01 16:01:00,
2013-03-01 11:11:00,45.0,32.8,29.80,NNW,344,2.0,6.0,62,0.00,,,0.00,Wunderground v.1.15,2013-03-01 16:11:00,
2013-03-01 11:21:00,44.8,32.6,29.80,NW,314,3.0,4.0,62,0.00,,,0.00,Wunderground v.1.15,2013-03-01 16:21:00,
2013-03-01 11:36:00,44.7,32.9,29.80,WNW,287,2.0,2.0,63,0.00,,,0.00,Wunderground v.1.15,2013-03-01 16:36:00,
2013-03-01 11:45:00,44.4,32.6,29.80,NW,307,2.0,5.0,63,0.00,,,0.00,Wunderground v.1.15,2013-03-01 16:45:00,
2013-03-01 11:51:00,44.2,32.4,29.80,NNW,329,2.0,2.0,63,0.00,,,0.00,Wunderground v.1.15,2013-03-01 16:51:00,
2013-03-01 12:00:00,43.9,32.5,29.80,NW,309,2.0,4.0,64,0.00,,,0.00,Wunderground v.1.15,2013-03-01 17:00:00,
2013-03-01 12:05:00,43.9,32.1,29.80,WNW,302,2.0,4.0,63,0.00,,,0.00,Wunderground v.1.15,2013-03-01 17:05:00,
2013-03-01 12:11:00,44.0,32.6,29.80,NNW,335,2.0,2.0,64,0.00,,,0.00,Wunderground v.1.15,2013-03-01 17:11:00,
2013-03-01 12:21:00,44.3,32.5,29.80,NNW,344,1.0,4.0,63,0.00,,,0.00,Wunderground v.1.15,2013-03-01 17:21:00,
2013-03-01 12:31:00,44.4,32.6,29.80,SW,217,3.0,3.0,63,0.00,,,0.00,Wunderground v.1.15,2013-03-01 17:31:00,
2013-03-01 12:45:00,44.2,32.4,29.80,WNW,289,2.0,4.0,63,0.00,,,0.00,Wunderground v.1.15,2013-03-01 17:45:00,
2013-03-01 12:55:00,44.0,32.6,29.80,NW,325,3.0,3.0,64,0.00,,,0.00,Wunderground v.1.15,2013-03-01 17:55:00,
2013-03-01 13:01:00,44.0,32.6,29.80,NNW,327,2.0,2.0,64,0.00,,,0.00,Wunderground v.1.15,2013-03-01 18:01:00,
2013-03-01 13:11:00,43.9,31.7,29.80,NW,308,3.0,3.0,62,0.00,,,0.00,Wunderground v.1.15,2013-03-01 18:11:00,
2013-03-01 13:21:00,44.0,31.8,29.79,NNW,342,3.0,6.0,62,0.00,,,0.00,Wunderground v.1.15,2013-03-01 18:21:00,
2013-03-01 13:31:00,44.2,32.0,29.79,North,360,3.0,3.0,62,0.00,,,0.00,Wunderground v.1.15,2013-03-01 18:31:00,
2013-03-01 13:45:00,44.1,31.5,29.79,NW,325,4.0,7.0,61,0.00,,,0.00,Wunderground v.1.15,2013-03-01 18:45:00,
2013-03-01 13:55:00,44.0,31.8,29.78,NW,323,3.0,4.0,62,0.00,,,0.00,Wunderground v.1.15,2013-03-01 18:55:00,
2013-03-01 14:11:00,43.8,31.6,29.78,NNW,342,4.0,4.0,62,0.00,,,0.00,Wunderground v.1.15,2013-03-01 19:11:00,
2013-03-01 14:21:00,43.8,32.0,29.78,NNW,338,2.0,4.0,63,0.00,,,0.00,Wunderground v.1.15,2013-03-01 19:21:00,
2013-03-01 14:31:00,43.8,31.6,29.79,NNW,348,3.0,5.0,62,0.00,,,0.00,Wunderground v.1.15,2013-03-01 19:31:00,
2013-03-01 14:36:00,43.8,31.6,29.79,NNW,345,3.0,3.0,62,0.00,,,0.00,Wunderground v.1.15,2013-03-01 19:36:00,
2013-03-01 14:55:00,44.0,31.8,29.79,NW,309,1.0,1.0,62,0.00,,,0.00,Wunderground v.1.15,2013-03-01 19:55:00,
2013-03-01 15:15:00,44.0,31.0,29.79,NNW,347,2.0,3.0,60,0.00,,,0.00,Wunderground v.1.15,2013-03-01 20:15:00,
2013-03-01 15:21:00,44.0,31.4,29.79,NNW,347,2.0,2.0,61,0.00,,,0.00,Wunderground v.1.15,2013-03-01 20:21:00,
2013-03-01 15:31:00,43.9,30.9,29.79,NNW,336,3.0,3.0,60,0.00,,,0.00,Wunderground v.1.15,2013-03-01 20:31:00,
2013-03-01 15:36:00,43.9,30.9,29.78,NNW,333,3.0,4.0,60,0.00,,,0.00,Wunderground v.1.15,2013-03-01 20:36:00,
2013-03-01 15:45:00,43.9,31.3,29.79,West,281,1.0,1.0,61,0.00,,,0.00,Wunderground v.1.15,2013-03-01 20:45:00,
2013-03-01 16:05:00,44.0,31.0,29.78,NNW,343,2.0,2.0,60,0.00,,,0.00,Wunderground v.1.15,2013-03-01 21:05:00,
2013-03-01 16:15:00,44.0,31.0,29.79,NNW,336,1.0,5.0,60,0.00,,,0.00,Wunderground v.1.15,2013-03-01 21:15:00,
2013-03-01 16:21:00,44.0,30.6,29.79,NNW,327,2.0,5.0,59,0.00,,,0.00,Wunderground v.1.15,2013-03-01 21:21:00,
2013-03-01 16:31:00,44.0,30.6,29.79,West,278,1.0,2.0,59,0.00,,,0.00,Wunderground v.1.15,2013-03-01 21:31:00,
2013-03-01 17:05:00,43.8,30.4,29.80,WNW,285,1.0,1.0,59,0.00,,,0.00,Wunderground v.1.15,2013-03-01 22:05:00,
2013-03-01 17:21:00,43.6,29.8,29.80,North,355,2.0,3.0,58,0.00,,,0.00,Wunderground v.1.15,2013-03-01 22:21:00,
2013-03-01 17:31:00,43.4,30.0,29.81,NNW,336,2.0,2.0,59,0.00,,,0.00,Wunderground v.1.15,2013-03-01 22:31:00,
2013-03-01 17:36:00,43.4,30.0,29.81,NNE,25,1.0,1.0,59,0.00,,,0.00,Wunderground v.1.15,2013-03-01 22:36:00,
2013-03-01 17:41:00,43.3,29.9,29.81,WSW,250,2.0,2.0,59,0.00,,,0.00,Wunderground v.1.15,2013-03-01 22:41:00,
2013-03-01 17:51:00,43.1,29.7,29.81,NNW,338,2.0,3.0,59,0.00,,,0.00,Wunderground v.1.15,2013-03-01 22:51:00,
2013-03-01 18:01:00,42.9,29.5,29.82,NNE,19,3.0,4.0,59,0.00,,,0.00,Wunderground v.1.15,2013-03-01 23:01:00,
2013-03-01 18:11:00,42.8,29.5,29.82,West,275,1.0,1.0,59,0.00,,,0.00,Wunderground v.1.15,2013-03-01 23:11:00,
2013-03-01 18:21:00,42.6,29.3,29.82,NW,326,2.0,3.0,59,0.00,,,0.00,Wunderground v.1.15,2013-03-01 23:21:00,
2013-03-01 18:31:00,42.4,28.7,29.82,NNW,342,2.0,5.0,58,0.00,,,0.00,Wunderground v.1.15,2013-03-01 23:31:00,
2013-03-01 18:36:00,42.3,29.0,29.82,West,277,3.0,6.0,59,0.00,,,0.00,Wunderground v.1.15,2013-03-01 23:36:00,
2013-03-01 18:41:00,42.2,28.9,29.82,NW,311,2.0,6.0,59,0.00,,,0.00,Wunderground v.1.15,2013-03-01 23:41:00,
2013-03-01 18:51:00,42.1,28.8,29.83,WNW,302,2.0,5.0,59,0.00,,,0.00,Wunderground v.1.15,2013-03-01 23:51:00,
2013-03-01 19:00:00,42.0,29.1,29.83,NW,314,2.0,2.0,60,0.00,,,0.00,Wunderground v.1.15,2013-03-02 00:00:00,
2013-03-01 19:06:00,41.9,29.0,29.83,NNW,348,2.0,4.0,60,0.00,,,0.00,Wunderground v.1.15,2013-03-02 00:06:00,
2013-03-01 19:11:00,41.8,28.9,29.83,NW,304,2.0,2.0,60,0.00,,,0.00,Wunderground v.1.15,2013-03-02 00:11:00,
2013-03-01 19:21:00,41.7,28.8,29.83,NNW,336,1.0,1.0,60,0.00,,,0.00,Wunderground v.1.15,2013-03-02 00:21:00,
2013-03-01 19:31:00,41.6,29.1,29.83,NNW,348,1.0,1.0,61,0.00,,,0.00,Wunderground v.1.15,2013-03-02 00:31:00,
2013-03-01 19:41:00,41.4,29.3,29.83,North,355,1.0,1.0,62,0.00,,,0.00,Wunderground v.1.15,2013-03-02 00:41:00,
2013-03-01 19:51:00,41.4,29.3,29.83,NNW,340,1.0,3.0,62,0.00,,,0.00,Wunderground v.1.15,2013-03-02 00:51:00,
2013-03-01 20:01:00,41.4,29.3,29.84,NNW,343,1.0,1.0,62,0.00,,,0.00,Wunderground v.1.15,2013-03-02 01:01:00,
2013-03-01 20:10:00,41.3,29.6,29.84,WNW,302,1.0,1.0,63,0.00,,,0.00,Wunderground v.1.15,2013-03-02 01:10:00,
2013-03-01 20:21:00,41.3,29.6,29.84,NW,308,0.0,0.0,63,0.00,,,0.00,Wunderground v.1.15,2013-03-02 01:21:00,
2013-03-01 20:31:00,41.1,29.8,29.85,NNW,340,1.0,1.0,64,0.00,,,0.00,Wunderground v.1.15,2013-03-02 01:31:00,
2013-03-01 20:40:00,41.1,29.8,29.85,West,276,2.0,5.0,64,0.00,,,0.00,Wunderground v.1.15,2013-03-02 01:40:00,
2013-03-01 20:51:00,41.1,30.2,29.85,North,355,1.0,2.0,65,0.00,,,0.00,Wunderground v.1.15,2013-03-02 01:51:00,
2013-03-01 21:01:00,41.1,29.8,29.86,NW,326,3.0,12.0,64,0.00,,,0.00,Wunderground v.1.15,2013-03-02 02:01:00,
2013-03-01 21:11:00,41.0,29.7,29.86,NNW,342,4.0,4.0,64,0.00,,,0.00,Wunderground v.1.15,2013-03-02 02:11:00,
2013-03-01 21:21:00,40.9,29.7,29.86,North,360,2.0,4.0,64,0.00,,,0.00,Wunderground v.1.15,2013-03-02 02:21:00,
2013-03-01 21:31:00,40.8,29.6,29.86,North,10,3.0,3.0,64,0.00,,,0.00,Wunderground v.1.15,2013-03-02 02:31:00,
2013-03-01 21:41:00,40.6,29.4,29.86,NNW,348,2.0,4.0,64,0.00,,,0.00,Wunderground v.1.15,2013-03-02 02:41:00,
2013-03-01 21:51:00,40.5,29.7,29.86,North,355,2.0,4.0,65,0.00,,,0.00,Wunderground v.1.15,2013-03-02 02:51:00,
2013-03-01 22:01:00,40.4,29.6,29.86,North,5,2.0,2.0,65,0.00,,,0.00,Wunderground v.1.15,2013-03-02 03:01:00,
2013-03-01 22:11:00,40.2,29.0,29.86,NNW,344,2.0,9.0,64,0.00,,,0.00,Wunderground v.1.15,2013-03-02 03:11:00,
2013-03-01 22:21:00,40.1,28.9,29.86,North,350,2.0,3.0,64,0.00,,,0.00,Wunderground v.1.15,2013-03-02 03:21:00,
2013-03-01 22:31:00,40.0,28.8,29.86,WNW,301,2.0,2.0,64,0.00,,,0.00,Wunderground v.1.15,2013-03-02 03:31:00,
2013-03-01 22:36:00,39.9,28.7,29.86,NNW,338,3.0,3.0,64,0.00,,,0.00,Wunderground v.1.15,2013-03-02 03:36:00,
2013-03-01 22:41:00,39.9,28.7,29.86,NNW,346,3.0,3.0,64,0.00,,,0.00,Wunderground v.1.15,2013-03-02 03:41:00,
2013-03-01 22:51:00,39.7,28.5,29.86,NNW,340,2.0,2.0,64,0.00,,,0.00,Wunderground v.1.15,2013-03-02 03:51:00,
2013-03-01 23:01:00,39.6,28.0,29.86,NNW,348,3.0,3.0,63,0.00,,,0.00,Wunderground v.1.15,2013-03-02 04:01:00,
2013-03-01 23:11:00,39.4,27.5,29.86,NNW,343,3.0,3.0,62,0.00,,,0.00,Wunderground v.1.15,2013-03-02 04:11:00,
2013-03-01 23:21:00,39.3,27.4,29.86,North,349,3.0,3.0,62,0.00,,,0.00,Wunderground v.1.15,2013-03-02 04:21:00,
2013-03-01 23:31:00,39.2,27.3,29.86,NNW,338,4.0,5.0,62,0.00,,,0.00,Wunderground v.1.15,2013-03-02 04:31:00,
2013-03-01 23:41:00,39.1,27.2,29.86,NE,49,3.0,4.0,62,0.00,,,0.00,Wunderground v.1.15,2013-03-02 04:41:00,
2013-03-01 23:51:00,39.0,27.5,29.86,North,355,3.0,3.0,63,0.00,,,0.00,Wunderground v.1.15,2013-03-02 04:51:00,